createdAt,value
2022-11-23T00:00:05.743Z,30.92
2022-11-23T00:02:38.272Z,33.80
2022-11-23T00:05:10.539Z,31.55
2022-11-23T00:07:42.272Z,32.50
2022-11-23T00:10:13.957Z,29.90
2022-11-23T00:12:45.962Z,28.95
2022-11-23T00:15:17.563Z,32.00
2022-11-23T00:17:49.220Z,29.15
2022-11-23T00:20:20.912Z,30.15
2022-11-23T00:22:52.662Z,28.98
2022-11-23T00:25:25.424Z,30.17
2022-11-23T00:27:57.160Z,31.33
2022-11-23T00:30:34.469Z,26.38
2022-11-23T00:33:06.236Z,28.55
2022-11-23T00:35:37.883Z,32.03
2022-11-23T00:38:09.819Z,35.45
2022-11-23T00:40:41.619Z,35.40
2022-11-23T00:43:13.233Z,32.83
2022-11-23T00:45:49.484Z,28.77
2022-11-23T00:48:22.105Z,30.92
2022-11-23T00:50:53.734Z,30.95
2022-11-23T00:53:25.366Z,33.20
2022-11-23T00:55:57.819Z,33.13
2022-11-23T00:58:29.783Z,37.65
2022-11-23T01:01:10.464Z,34.47
2022-11-23T01:03:45.912Z,32.67
2022-11-23T01:06:23.991Z,32.10
2022-11-23T01:09:05.957Z,31.88
2022-11-23T01:11:39.157Z,31.52
2022-11-23T01:14:13.208Z,33.08
2022-11-23T01:16:46.094Z,35.40
2022-11-23T01:19:20.248Z,34.53
2022-11-23T01:21:54.395Z,32.42
2022-11-23T01:24:29.296Z,33.17
2022-11-23T01:27:00.920Z,32.03
2022-11-23T01:29:33.811Z,30.08
2022-11-23T01:32:08.517Z,30.63
2022-11-23T01:34:43.238Z,29.73
2022-11-23T01:37:15.910Z,32.20
2022-11-23T01:39:49.448Z,30.65
2022-11-23T01:42:21.169Z,31.63
2022-11-23T01:44:53.356Z,33.25
2022-11-23T01:47:25.284Z,35.15
2022-11-23T01:49:57.092Z,33.08
2022-11-23T01:52:28.682Z,33.38
2022-11-23T01:55:05.277Z,31.13
2022-11-23T01:57:44.236Z,31.10
2022-11-23T02:00:16.694Z,30.95
2022-11-23T02:02:55.689Z,32.47
2022-11-23T02:05:37.089Z,33.28
2022-11-23T02:08:11.904Z,32.40
2022-11-23T02:10:43.646Z,29.38
2022-11-23T02:13:16.116Z,32.25
2022-11-23T02:15:47.750Z,31.50
2022-11-23T02:18:25.013Z,32.15
2022-11-23T02:20:59.387Z,36.72
2022-11-23T02:23:52.913Z,33.90
2022-11-23T02:26:33.430Z,36.83
2022-11-23T02:29:40.654Z,30.40
2022-11-23T02:32:12.687Z,32.75
2022-11-23T02:34:44.278Z,37.70
2022-11-23T02:37:16.845Z,34.25
2022-11-23T02:39:50.553Z,41.35
2022-11-23T02:45:18.959Z,36.85
2022-11-23T02:50:42.427Z,35.40
2022-11-23T02:53:14.501Z,35.08
2022-11-23T02:55:46.185Z,37.97
2022-11-23T02:58:17.848Z,40.95
2022-11-23T03:00:49.555Z,38.05
2022-11-23T03:03:24.548Z,40.70
2022-11-23T03:05:56.149Z,38.75
2022-11-23T03:08:28.713Z,36.60
2022-11-23T03:11:02.123Z,39.58
2022-11-23T03:13:35.166Z,34.78
2022-11-23T03:16:06.993Z,36.47
2022-11-23T03:18:38.703Z,35.65
2022-11-23T03:21:12.747Z,37.15
2022-11-23T03:23:47.056Z,36.65
2022-11-23T03:26:21.957Z,36.95
2022-11-23T03:29:06.128Z,36.13
2022-11-23T03:31:40.595Z,37.25
2022-11-23T03:34:15.853Z,38.00
2022-11-23T03:36:49.454Z,37.33
2022-11-23T03:39:21.442Z,40.83
2022-11-23T03:42:21.925Z,38.25
2022-11-23T03:44:53.729Z,34.28
2022-11-23T03:47:25.310Z,37.10
2022-11-23T03:49:57.104Z,37.45
2022-11-23T03:52:28.717Z,38.85
2022-11-23T03:55:00.584Z,42.20
2022-11-23T03:57:32.554Z,39.15
2022-11-23T04:00:08.574Z,42.20
2022-11-23T04:02:44.837Z,35.03
2022-11-23T04:05:36.385Z,39.45
2022-11-23T04:08:23.206Z,36.72
2022-11-23T04:10:59.492Z,33.05
2022-11-23T04:13:42.693Z,38.22
2022-11-23T04:16:14.434Z,38.92
2022-11-23T04:18:46.628Z,38.92
2022-11-23T04:21:21.376Z,41.60
2022-11-23T04:26:24.976Z,37.40
2022-11-23T04:28:56.647Z,35.75
2022-11-23T04:31:28.880Z,39.17
2022-11-23T04:34:12.179Z,38.22
2022-11-23T04:36:44.359Z,37.22
2022-11-23T04:39:16.645Z,44.47
2022-11-23T04:42:07.566Z,42.35
2022-11-23T04:44:39.426Z,42.92
2022-11-23T04:47:12.619Z,39.92
2022-11-23T04:49:44.484Z,39.67
2022-11-23T04:52:16.426Z,43.70
2022-11-23T04:54:52.480Z,37.67
2022-11-23T04:57:24.285Z,39.28
2022-11-23T04:59:57.124Z,42.92
2022-11-23T05:02:30.580Z,42.75
2022-11-23T05:05:12.590Z,45.28
2022-11-23T05:07:44.409Z,43.63
2022-11-23T05:10:16.283Z,40.35
2022-11-23T05:12:48.052Z,44.83
2022-11-23T05:15:19.955Z,42.95
2022-11-23T05:17:54.107Z,45.10
2022-11-23T05:20:30.315Z,41.47
2022-11-23T05:23:02.302Z,42.38
2022-11-23T05:25:38.368Z,41.55
2022-11-23T05:28:39.211Z,43.17
2022-11-23T05:31:11.266Z,48.75
2022-11-23T05:33:43.335Z,42.65
2022-11-23T05:36:15.145Z,45.28
2022-11-23T05:38:47.301Z,45.88
2022-11-23T05:41:25.776Z,44.35
2022-11-23T05:44:02.445Z,41.45
2022-11-23T05:46:35.245Z,43.33
2022-11-23T05:49:07.027Z,41.08
2022-11-23T05:51:42.166Z,37.00
2022-11-23T05:54:13.889Z,39.38
2022-11-23T05:56:55.431Z,43.22
2022-11-23T05:59:33.696Z,38.58
2022-11-23T06:02:07.236Z,42.87
2022-11-23T06:04:40.786Z,39.13
2022-11-23T06:07:20.327Z,39.63
2022-11-23T06:10:04.797Z,50.75
2022-11-23T06:12:38.697Z,49.10
2022-11-23T06:17:45.359Z,49.47
2022-11-23T06:20:20.729Z,46.25
2022-11-23T06:23:02.055Z,49.95
2022-11-23T06:25:34.062Z,49.40
2022-11-23T06:28:11.288Z,54.05
2022-11-23T06:30:49.089Z,54.42
2022-11-23T06:33:21.340Z,50.67
2022-11-23T06:35:57.668Z,48.38
2022-11-23T06:38:33.317Z,48.70
2022-11-23T06:41:32.179Z,47.92
2022-11-23T06:44:05.753Z,50.60
2022-11-23T06:46:47.241Z,47.85
2022-11-23T06:49:20.542Z,47.42
2022-11-23T06:52:05.351Z,53.58
2022-11-23T06:54:37.044Z,51.38
2022-11-23T06:57:09.365Z,48.30
2022-11-23T06:59:44.785Z,52.70
2022-11-23T07:02:21.416Z,53.05
2022-11-23T07:04:53.492Z,58.83
2022-11-23T07:07:25.413Z,57.33
2022-11-23T07:10:07.441Z,50.85
2022-11-23T07:12:51.088Z,50.83
2022-11-23T07:15:31.534Z,49.80
2022-11-23T07:18:05.982Z,50.20
2022-11-23T07:20:39.625Z,63.42
2022-11-23T07:23:12.097Z,45.05
2022-11-23T07:25:45.252Z,45.15
2022-11-23T07:28:17.511Z,48.92
2022-11-23T07:30:52.014Z,46.13
2022-11-23T07:33:25.277Z,39.83
2022-11-23T07:36:00.367Z,45.25
2022-11-23T07:38:32.033Z,44.78
2022-11-23T07:41:05.435Z,46.08
2022-11-23T07:43:57.365Z,49.08
2022-11-23T07:46:29.046Z,45.13
2022-11-23T07:49:02.410Z,45.53
2022-11-23T07:51:34.364Z,43.88
2022-11-23T07:54:06.403Z,50.00
2022-11-23T07:56:38.070Z,46.25
2022-11-23T07:59:09.758Z,43.75
2022-11-23T08:01:41.340Z,42.75
2022-11-23T08:04:12.960Z,47.17
2022-11-23T08:06:44.534Z,44.78
2022-11-23T08:09:16.170Z,41.97
2022-11-23T08:11:47.758Z,43.33
2022-11-23T08:14:19.384Z,41.80
2022-11-23T08:16:51.670Z,47.90
2022-11-23T08:19:23.374Z,44.22
2022-11-23T08:21:55.072Z,45.40
2022-11-23T08:24:26.721Z,46.08
2022-11-23T08:26:58.379Z,44.25
2022-11-23T08:29:30.199Z,42.15
2022-11-23T08:32:01.852Z,39.63
2022-11-23T08:34:34.140Z,42.38
2022-11-23T08:37:05.924Z,46.17
2022-11-23T08:39:37.587Z,40.67
2022-11-23T08:42:09.198Z,41.05
2022-11-23T08:44:40.785Z,43.70
2022-11-23T08:47:12.498Z,44.33
2022-11-23T08:49:44.411Z,43.72
2022-11-23T08:52:17.185Z,44.35
2022-11-23T08:54:48.761Z,42.38
2022-11-23T08:57:20.410Z,43.80
2022-11-23T08:59:51.993Z,44.28
2022-11-23T09:02:23.929Z,47.10
2022-11-23T09:04:55.499Z,46.70
2022-11-23T09:07:28.249Z,48.30
2022-11-23T09:09:59.928Z,51.80
2022-11-23T09:12:32.582Z,45.60
2022-11-23T09:15:04.820Z,47.25
2022-11-23T09:17:36.476Z,41.03
2022-11-23T09:20:10.127Z,45.45
2022-11-23T09:22:41.774Z,42.05
2022-11-23T09:25:13.446Z,35.05
2022-11-23T09:27:45.451Z,30.95
2022-11-23T09:30:17.598Z,27.70
2022-11-23T09:32:49.240Z,30.50
2022-11-23T09:35:20.861Z,28.98
2022-11-23T09:37:59.045Z,33.97
2022-11-23T09:40:39.686Z,32.20
2022-11-23T09:43:35.907Z,33.90
2022-11-23T09:46:37.260Z,32.75
2022-11-23T09:49:21.373Z,36.00
2022-11-23T09:51:55.799Z,38.33
2022-11-23T09:54:33.866Z,34.97
2022-11-23T09:57:05.793Z,35.83
2022-11-23T09:59:42.089Z,35.65
2022-11-23T10:02:26.067Z,33.13
2022-11-23T10:05:00.285Z,36.05
2022-11-23T10:07:59.640Z,31.38
2022-11-23T10:10:37.233Z,32.58
2022-11-23T10:13:33.629Z,32.53
2022-11-23T10:16:33.611Z,33.60
2022-11-23T10:19:43.314Z,31.75
2022-11-23T10:22:28.001Z,29.30
2022-11-23T10:25:04.613Z,28.92
2022-11-23T10:27:36.226Z,32.13
2022-11-23T10:30:13.304Z,30.25
2022-11-23T10:32:53.525Z,28.02
2022-11-23T10:35:25.034Z,28.38
2022-11-23T10:38:18.321Z,26.90
2022-11-23T10:40:59.602Z,30.33
2022-11-23T10:43:45.253Z,30.17
2022-11-23T10:46:39.923Z,31.08
2022-11-23T10:49:28.041Z,34.33
2022-11-23T10:52:05.863Z,30.67
2022-11-23T10:54:54.415Z,30.45
2022-11-23T10:57:36.984Z,33.42
2022-11-23T11:00:14.799Z,30.48
2022-11-23T11:02:49.246Z,29.33
2022-11-23T11:08:38.095Z,29.90
2022-11-23T11:11:22.869Z,32.42
2022-11-23T11:14:20.545Z,32.72
2022-11-23T11:16:55.349Z,29.58
2022-11-23T11:19:34.831Z,29.83
2022-11-23T11:22:32.280Z,29.38
2022-11-23T11:25:06.396Z,27.25
2022-11-23T11:27:38.044Z,27.67
2022-11-23T11:30:22.533Z,30.15
2022-11-23T11:33:00.029Z,30.27
2022-11-23T11:35:37.602Z,34.67
2022-11-23T11:38:29.766Z,30.13
2022-11-23T11:41:08.680Z,33.63
2022-11-23T11:43:59.220Z,32.55
2022-11-23T11:46:40.394Z,28.83
2022-11-23T11:49:18.401Z,30.83
2022-11-23T11:52:00.124Z,32.10
2022-11-23T11:54:40.289Z,30.45
2022-11-23T11:57:44.274Z,28.58
2022-11-23T12:00:19.815Z,29.58
2022-11-23T12:03:10.659Z,31.35
2022-11-23T12:05:42.374Z,29.98
2022-11-23T12:08:19.963Z,30.95
2022-11-23T12:10:59.163Z,33.03
2022-11-23T12:13:36.383Z,32.58
2022-11-23T12:16:16.286Z,32.03
2022-11-23T12:19:09.441Z,34.97
2022-11-23T12:21:41.077Z,37.38
2022-11-23T12:24:38.663Z,37.58
2022-11-23T12:27:46.589Z,38.95
2022-11-23T12:30:26.134Z,35.13
2022-11-23T12:33:06.894Z,35.33
2022-11-23T12:35:56.563Z,34.70
2022-11-23T12:38:52.966Z,35.85
2022-11-23T12:41:24.830Z,36.75
2022-11-23T12:44:08.557Z,34.10
2022-11-23T12:46:46.136Z,36.17
2022-11-23T12:49:52.052Z,36.95
2022-11-23T12:52:31.060Z,33.28
2022-11-23T12:55:37.679Z,35.95
2022-11-23T12:58:25.793Z,32.10
2022-11-23T13:01:10.900Z,36.63
2022-11-23T13:07:27.422Z,33.70
2022-11-23T13:10:10.428Z,33.60
2022-11-23T13:13:23.341Z,30.65
2022-11-23T13:16:08.776Z,36.88
2022-11-23T13:19:04.710Z,33.72
2022-11-23T13:21:42.236Z,32.38
2022-11-23T13:24:28.142Z,36.35
2022-11-23T13:27:14.912Z,35.88
2022-11-23T13:29:58.611Z,32.78
2022-11-23T13:32:39.281Z,33.05
2022-11-23T13:35:16.602Z,32.33
2022-11-23T13:37:57.155Z,37.15
2022-11-23T13:40:36.678Z,33.60
2022-11-23T13:43:30.298Z,32.05
2022-11-23T13:46:27.333Z,31.50
2022-11-23T13:49:00.669Z,30.55
2022-11-23T13:51:34.943Z,31.80
2022-11-23T13:54:21.249Z,32.17
2022-11-23T13:57:05.619Z,32.53
2022-11-23T13:59:37.283Z,34.25
2022-11-23T14:02:09.140Z,36.13
2022-11-23T14:04:47.017Z,33.47
2022-11-23T14:07:43.396Z,36.00
2022-11-23T14:10:22.946Z,35.80
2022-11-23T14:12:57.573Z,35.08
2022-11-23T14:15:32.979Z,34.03
2022-11-23T14:18:18.241Z,35.80
2022-11-23T14:21:07.697Z,32.90
2022-11-23T14:24:02.295Z,29.80
2022-11-23T14:27:12.330Z,34.13
2022-11-23T14:30:30.204Z,31.92
2022-11-23T14:33:33.672Z,34.58
2022-11-23T14:36:42.768Z,34.55
2022-11-23T14:39:20.294Z,34.45
2022-11-23T14:41:59.529Z,31.60
2022-11-23T14:44:38.369Z,34.15
2022-11-23T14:47:11.334Z,33.97
2022-11-23T14:49:51.092Z,34.47
2022-11-23T14:52:26.584Z,34.78
2022-11-23T14:55:05.267Z,32.85
2022-11-23T14:57:46.620Z,34.78
2022-11-23T15:00:29.479Z,33.35
2022-11-23T15:03:48.275Z,33.45
2022-11-23T15:08:54.486Z,29.75
2022-11-23T15:11:28.941Z,31.45
2022-11-23T15:14:03.394Z,27.52
2022-11-23T15:16:42.554Z,34.85
2022-11-23T15:19:42.789Z,34.10
2022-11-23T15:22:19.911Z,34.92
2022-11-23T15:24:51.877Z,32.22
2022-11-23T15:27:31.204Z,32.42
2022-11-23T15:30:03.147Z,36.50
2022-11-23T15:32:35.476Z,32.67
2022-11-23T15:35:13.729Z,31.73
2022-11-23T15:37:49.880Z,36.95
2022-11-23T15:40:23.695Z,36.15
2022-11-23T15:42:55.845Z,36.75
2022-11-23T15:45:39.345Z,34.22
2022-11-23T15:48:32.979Z,34.53
2022-11-23T15:51:08.615Z,33.53
2022-11-23T15:53:51.394Z,36.15
2022-11-23T15:56:25.809Z,35.30
2022-11-23T15:59:00.753Z,33.67
2022-11-23T16:01:32.523Z,31.65
2022-11-23T16:04:28.838Z,30.65
2022-11-23T16:07:15.664Z,32.20
2022-11-23T16:10:06.005Z,31.13
2022-11-23T16:12:51.666Z,34.80
2022-11-23T16:15:40.772Z,31.38
2022-11-23T16:18:18.483Z,33.80
2022-11-23T16:21:02.305Z,32.72
2022-11-23T16:23:45.806Z,31.55
2022-11-23T16:26:18.118Z,32.20
2022-11-23T16:28:53.996Z,35.70
2022-11-23T16:31:31.557Z,32.33
2022-11-23T16:34:10.062Z,34.25
2022-11-23T16:36:41.610Z,30.20
2022-11-23T16:39:13.268Z,36.53
2022-11-23T16:41:44.942Z,32.20
2022-11-23T16:44:20.221Z,34.47
2022-11-23T16:46:52.343Z,28.63
2022-11-23T16:49:24.228Z,32.22
2022-11-23T16:51:57.474Z,31.05
2022-11-23T16:54:29.422Z,31.20
2022-11-23T16:57:01.313Z,34.85
2022-11-23T16:59:34.328Z,32.25
2022-11-23T17:02:14.390Z,36.38
2022-11-23T17:04:46.226Z,43.40
2022-11-23T17:07:17.987Z,53.10
2022-11-23T17:09:49.621Z,50.08
2022-11-23T17:12:21.286Z,52.25
2022-11-23T17:14:52.959Z,53.78
2022-11-23T17:17:24.615Z,53.85
2022-11-23T17:20:01.006Z,56.90
2022-11-23T17:22:34.301Z,54.30
2022-11-23T17:25:11.681Z,51.22
2022-11-23T17:27:49.127Z,55.80
2022-11-23T17:30:22.432Z,53.70
2022-11-23T17:32:54.580Z,52.13
2022-11-23T17:35:26.694Z,52.33
2022-11-23T17:37:58.321Z,59.97
2022-11-23T17:40:33.229Z,53.22
2022-11-23T17:43:04.815Z,56.55
2022-11-23T17:45:36.632Z,56.47
2022-11-23T17:48:11.886Z,55.47
2022-11-23T17:50:43.676Z,54.88
2022-11-23T17:53:15.342Z,57.80
2022-11-23T17:55:47.389Z,53.05
2022-11-23T17:58:18.963Z,51.25
2022-11-23T18:00:50.741Z,54.55
2022-11-23T18:03:24.685Z,57.78
2022-11-23T18:05:56.382Z,55.97
2022-11-23T18:08:28.466Z,54.08
2022-11-23T18:11:02.714Z,52.55
2022-11-23T18:13:34.407Z,53.40
2022-11-23T18:16:07.086Z,55.10
2022-11-23T18:18:38.705Z,59.42
2022-11-23T18:21:10.936Z,53.13
2022-11-23T18:23:42.759Z,54.42
2022-11-23T18:26:20.754Z,56.30
2022-11-23T18:28:52.746Z,56.50
2022-11-23T18:31:24.537Z,54.88
2022-11-23T18:33:56.310Z,54.97
2022-11-23T18:36:29.019Z,55.33
2022-11-23T18:39:01.831Z,60.10
2022-11-23T18:41:33.485Z,60.65
2022-11-23T18:44:05.065Z,52.15
2022-11-23T18:46:36.692Z,47.88
2022-11-23T18:49:09.821Z,52.45
2022-11-23T18:51:44.550Z,59.63
2022-11-23T18:54:16.181Z,54.28
2022-11-23T18:56:48.167Z,56.30
2022-11-23T18:59:49.869Z,59.85
2022-11-23T19:02:13.217Z,57.83
2022-11-23T19:04:46.963Z,55.75
2022-11-23T19:07:25.128Z,56.30
2022-11-23T19:09:58.422Z,52.58
2022-11-23T19:12:30.968Z,53.70
2022-11-23T19:15:02.709Z,52.70
2022-11-23T19:17:41.482Z,56.95
2022-11-23T19:20:13.827Z,55.40
2022-11-23T19:22:45.449Z,55.75
2022-11-23T19:25:18.763Z,56.53
2022-11-23T19:27:51.519Z,55.45
2022-11-23T19:30:23.244Z,58.78
2022-11-23T19:32:54.866Z,57.90
2022-11-23T19:35:26.507Z,53.10
2022-11-23T19:37:58.323Z,57.85
2022-11-23T19:40:30.018Z,53.53
2022-11-23T19:43:01.786Z,58.45
2022-11-23T19:45:33.452Z,56.70
2022-11-23T19:48:05.260Z,55.92
2022-11-23T19:50:37.005Z,54.35
2022-11-23T19:53:13.243Z,51.22
2022-11-23T19:55:45.027Z,49.47
2022-11-23T19:58:17.131Z,51.47
2022-11-23T20:00:48.721Z,53.75
2022-11-23T20:03:20.466Z,57.85
2022-11-23T20:06:00.107Z,52.83
2022-11-23T20:08:31.763Z,47.75
2022-11-23T20:11:12.656Z,51.22
2022-11-23T20:13:44.942Z,50.88
2022-11-23T20:16:18.849Z,61.20
2022-11-23T20:18:57.140Z,56.47
2022-11-23T20:21:30.143Z,51.33
2022-11-23T20:24:12.832Z,59.30
2022-11-23T20:26:44.766Z,52.40
2022-11-23T20:29:17.133Z,52.97
2022-11-23T20:31:51.073Z,58.42
2022-11-23T20:34:26.093Z,53.87
2022-11-23T20:37:00.122Z,59.00
2022-11-23T20:39:31.966Z,58.67
2022-11-23T20:42:03.709Z,61.88
2022-11-23T20:44:37.323Z,55.15
2022-11-23T20:47:09.418Z,53.78
2022-11-23T20:49:41.288Z,57.78
2022-11-23T20:52:13.016Z,61.13
2022-11-23T20:54:46.366Z,54.50
2022-11-23T20:57:17.988Z,58.67
2022-11-23T20:59:50.307Z,60.38
2022-11-23T21:02:22.018Z,63.15
2022-11-23T21:04:53.894Z,55.75
2022-11-23T21:07:25.518Z,61.22
2022-11-23T21:10:00.289Z,56.80
2022-11-23T21:15:22.425Z,60.00
2022-11-23T21:17:54.038Z,60.60
2022-11-23T21:20:26.641Z,58.47
2022-11-23T21:22:58.941Z,60.83
2022-11-23T21:25:31.218Z,63.28
2022-11-23T21:28:03.376Z,63.30
2022-11-23T21:30:35.984Z,62.88
2022-11-23T21:33:07.861Z,62.67
2022-11-23T21:35:39.482Z,60.22
2022-11-23T21:38:11.074Z,57.60
2022-11-23T21:40:42.778Z,58.33
2022-11-23T21:43:15.691Z,59.97
2022-11-23T21:45:47.355Z,55.75
2022-11-23T21:48:19.019Z,63.20
2022-11-23T21:51:01.072Z,57.33
2022-11-23T21:53:33.494Z,60.20
2022-11-23T21:56:14.096Z,61.28
2022-11-23T21:58:46.378Z,61.28
2022-11-23T22:01:24.033Z,59.88
2022-11-23T22:04:01.377Z,53.80
2022-11-23T22:06:32.956Z,56.00
2022-11-23T22:09:06.775Z,54.53
2022-11-23T22:11:41.200Z,51.03
2022-11-23T22:14:17.083Z,54.40
2022-11-23T22:16:50.064Z,59.95
2022-11-23T22:19:21.724Z,48.90
2022-11-23T22:21:55.959Z,49.83
2022-11-23T22:24:27.579Z,43.97
2022-11-23T22:26:59.240Z,45.72
2022-11-23T22:29:30.839Z,43.65
2022-11-23T22:32:02.590Z,44.83
2022-11-23T22:34:35.633Z,41.53
2022-11-23T22:37:10.785Z,45.22
2022-11-23T22:39:42.845Z,39.85
2022-11-23T22:42:15.097Z,39.15
2022-11-23T22:44:46.681Z,35.55
2022-11-23T22:47:18.619Z,36.63
2022-11-23T22:49:50.556Z,33.00
2022-11-23T22:52:22.271Z,36.03
2022-11-23T22:54:54.182Z,38.40
2022-11-23T22:57:25.764Z,36.20
2022-11-23T22:59:57.374Z,33.17
2022-11-23T23:02:29.215Z,32.88
2022-11-23T23:05:00.977Z,37.55
2022-11-23T23:07:32.595Z,36.13
2022-11-23T23:10:04.455Z,37.17
2022-11-23T23:12:36.099Z,41.30
2022-11-23T23:15:08.204Z,34.08
2022-11-23T23:17:39.988Z,36.92
2022-11-23T23:20:11.987Z,40.92
2022-11-23T23:22:44.077Z,35.47
2022-11-23T23:25:15.780Z,32.42
2022-11-23T23:27:50.352Z,31.88
2022-11-23T23:30:22.087Z,31.20
2022-11-23T23:32:54.488Z,30.90
2022-11-23T23:35:26.334Z,28.85
2022-11-23T23:37:57.954Z,30.23
2022-11-23T23:40:32.210Z,27.15
2022-11-23T23:43:07.677Z,32.75
2022-11-23T23:45:39.495Z,33.28
2022-11-23T23:48:11.211Z,31.00
2022-11-23T23:50:42.828Z,32.90
2022-11-23T23:53:14.418Z,31.90
2022-11-23T23:56:02.092Z,34.67
2022-11-23T23:58:33.960Z,29.15
